Time;durP1;ratioP1;P1;durP2;ratioP2;P2;SDS_P1;SDS_P2;PMS_P1;PMS_P2;Temp;Humidity;BMP_temperature;BMP_pressure;BME280_temperature;BME280_humidity;BME280_pressure;Samples;Min_cycle;Max_cycle;Signal;HPM_P1;HPM_P2
2022/12/08 00:01:17;;;;;;;26.50;19.43;;;;;;;2.70;100.00;99593.59;5092335;28;20515;-60
2022/12/08 00:03:44;;;;;;;22.73;16.90;;;;;;;2.71;100.00;99591.78;5093957;28;20473;-59
2022/12/08 00:11:47;;;;;;;26.70;18.30;;;;;;;2.66;100.00;99586.84;5099922;28;20571;-60
2022/12/08 00:14:13;;;;;;;23.93;19.87;;;;;;;2.78;100.00;99582.50;5096050;28;20439;-60
2022/12/08 00:16:41;;;;;;;33.70;19.60;;;;;;;2.59;100.00;99588.22;5091566;28;20932;-60
2022/12/08 00:19:08;;;;;;;31.37;21.03;;;;;;;2.73;100.00;99585.47;5090116;28;20456;-60
2022/12/08 00:21:35;;;;;;;29.13;18.47;;;;;;;2.76;100.00;99576.47;5080726;28;20496;-60
2022/12/08 00:24:01;;;;;;;24.63;18.10;;;;;;;2.75;100.00;99574.78;5069900;28;20477;-60
2022/12/08 00:26:28;;;;;;;30.83;19.57;;;;;;;2.86;100.00;99576.69;5076895;28;20488;-60
2022/12/08 00:28:54;;;;;;;24.50;19.77;;;;;;;2.71;100.00;99579.44;5100371;28;20519;-60
2022/12/08 00:31:21;;;;;;;27.03;19.43;;;;;;;2.60;100.00;99572.28;5090666;28;21003;-60
2022/12/08 00:33:49;;;;;;;23.63;17.43;;;;;;;2.62;100.00;99562.47;5084289;28;20496;-59
2022/12/08 00:36:16;;;;;;;27.30;18.00;;;;;;;2.57;100.00;99569.84;5084404;28;20500;-60
2022/12/08 00:38:43;;;;;;;24.10;18.80;;;;;;;2.63;100.00;99564.13;5085576;28;20472;-60
2022/12/08 00:41:13;;;;;;;25.13;19.37;;;;;;;2.62;100.00;99562.47;5094529;28;20487;-60
2022/12/08 00:43:40;;;;;;;27.50;20.17;;;;;;;2.65;100.00;99564.03;5084876;28;21028;-60
2022/12/08 00:46:06;;;;;;;27.13;19.20;;;;;;;2.66;100.00;99563.09;5083578;28;20491;-60
2022/12/08 00:48:33;;;;;;;27.20;18.23;;;;;;;2.68;100.00;99562.97;5087852;28;20571;-60
2022/12/08 00:51:01;;;;;;;27.47;20.23;;;;;;;2.67;100.00;99562.13;5104140;28;21018;-60
2022/12/08 00:53:27;;;;;;;29.53;20.03;;;;;;;2.69;100.00;99559.38;5103592;28;20515;-60
2022/12/08 00:55:54;;;;;;;30.13;19.87;;;;;;;2.62;100.00;99561.59;5088939;28;20977;-60
2022/12/08 00:58:21;;;;;;;28.03;19.40;;;;;;;2.70;100.00;99561.06;5098018;28;20484;-60
2022/12/08 01:00:47;;;;;;;27.10;19.43;;;;;;;2.77;100.00;99557.88;5084629;28;20508;-60
2022/12/08 01:03:14;;;;;;;30.33;21.33;;;;;;;2.75;100.00;99561.59;5096424;28;20429;-60
2022/12/08 01:05:40;;;;;;;28.47;20.20;;;;;;;2.69;100.00;99562.88;5083700;28;20490;-60
2022/12/08 01:08:08;;;;;;;31.93;20.60;;;;;;;2.82;100.00;99552.28;5083523;28;20571;-59
2022/12/08 01:10:35;;;;;;;28.40;20.77;;;;;;;2.77;100.00;99557.03;5094501;28;20483;-59
2022/12/08 01:13:02;;;;;;;33.40;22.60;;;;;;;2.79;100.00;99555.13;5086531;28;20475;-60
2022/12/08 01:15:29;;;;;;;30.03;20.40;;;;;;;2.69;100.00;99554.09;5087711;28;20491;-60
2022/12/08 01:17:55;;;;;;;32.33;20.80;;;;;;;2.73;100.00;99553.78;5085618;28;20483;-59
2022/12/08 01:20:22;;;;;;;28.70;20.80;;;;;;;2.67;100.00;99556.84;5083453;28;20527;-59
2022/12/08 01:22:48;;;;;;;32.93;22.57;;;;;;;2.76;100.00;99565.91;5101079;28;20436;-60
2022/12/08 01:25:17;;;;;;;32.57;22.87;;;;;;;2.67;100.00;99558.66;5100842;28;20460;-60
2022/12/08 01:27:43;;;;;;;28.20;20.20;;;;;;;2.78;100.00;99551.66;5086548;28;20490;-60
2022/12/08 01:30:12;;;;;;;34.47;24.60;;;;;;;2.74;100.00;99559.91;5091892;28;20554;-60
2022/12/08 01:32:38;;;;;;;33.77;22.47;;;;;;;2.84;100.00;99560.94;5102441;28;20483;-60
2022/12/08 01:35:05;;;;;;;31.67;21.73;;;;;;;2.87;100.00;99560.72;5103455;28;21131;-60
2022/12/08 01:37:32;;;;;;;34.13;21.87;;;;;;;2.81;100.00;99561.16;5085527;28;20510;-60
2022/12/08 01:39:59;;;;;;;31.00;22.17;;;;;;;2.89;100.00;99558.81;5090262;28;20455;-60
2022/12/08 01:42:27;;;;;;;35.23;23.87;;;;;;;2.86;100.00;99564.31;5097353;28;20482;-60
2022/12/08 01:44:58;;;;;;;29.77;22.83;;;;;;;2.92;100.00;99561.25;5088895;28;20485;-60
2022/12/08 01:47:30;;;;;;;32.83;22.80;;;;;;;2.88;100.00;99558.94;5065837;28;20536;-60
2022/12/08 01:49:56;;;;;;;40.17;22.13;;;;;;;2.91;100.00;99556.06;5081236;28;20459;-60
2022/12/08 01:52:26;;;;;;;30.80;22.27;;;;;;;2.97;100.00;99556.50;5102784;28;20495;-60
2022/12/08 01:54:55;;;;;;;33.00;24.10;;;;;;;3.03;100.00;99555.19;5102818;28;20990;-60
2022/12/08 01:57:24;;;;;;;31.73;22.63;;;;;;;2.93;100.00;99549.72;5090831;28;21249;-60
2022/12/08 01:59:55;;;;;;;35.43;22.40;;;;;;;3.07;100.00;99553.19;5083351;28;20436;-60
2022/12/08 02:02:21;;;;;;;31.47;20.90;;;;;;;3.07;100.00;99545.25;5082947;28;20515;-60
2022/12/08 02:04:48;;;;;;;29.40;21.43;;;;;;;3.03;100.00;99551.72;5094989;28;20507;-60
2022/12/08 02:07:15;;;;;;;33.93;22.07;;;;;;;3.01;100.00;99547.38;5088803;28;20542;-60
2022/12/08 02:09:45;;;;;;;34.60;22.83;;;;;;;3.04;100.00;99537.53;5103681;28;20509;-60
2022/12/08 02:12:11;;;;;;;33.77;22.33;;;;;;;3.05;100.00;99528.69;5084933;28;20571;-60
2022/12/08 02:14:38;;;;;;;34.87;21.03;;;;;;;3.03;100.00;99534.06;5082661;28;20472;-60
2022/12/08 02:17:19;;;;;;;29.23;21.07;;;;;;;3.01;100.00;99528.91;5085751;28;20498;-60
2022/12/08 02:20:18;;;;;;;29.20;21.63;;;;;;;2.92;100.00;99515.53;5094735;28;20962;-60
2022/12/08 02:22:51;;;;;;;27.70;20.13;;;;;;;2.84;100.00;99516.06;5088040;28;20484;-60
2022/12/08 02:25:24;;;;;;;32.67;20.30;;;;;;;2.86;100.00;99515.94;5089707;28;20482;-60
2022/12/08 02:28:00;;;;;;;31.50;23.23;;;;;;;2.79;100.00;99510.25;5082623;28;20512;-60
2022/12/08 02:30:33;;;;;;;36.20;22.17;;;;;;;2.76;100.00;99506.06;5096750;28;21052;-61
2022/12/08 02:33:47;;;;;;;28.27;21.77;;;;;;;2.81;100.00;99508.34;5101547;28;20574;-60
2022/12/08 02:36:17;;;;;;;28.00;20.80;;;;;;;2.74;100.00;99497.41;5070151;28;20510;-60
2022/12/08 02:38:48;;;;;;;30.90;20.40;;;;;;;2.87;100.00;99494.72;5094157;28;20468;-60
2022/12/08 02:41:24;;;;;;;26.07;18.60;;;;;;;2.81;100.00;99492.50;5091912;28;20468;-60
2022/12/08 02:43:55;;;;;;;26.23;19.10;;;;;;;2.78;100.00;99498.03;5076200;28;20447;-61
2022/12/08 02:46:25;;;;;;;25.83;21.07;;;;;;;2.78;100.00;99495.41;5062026;28;20508;-61
2022/12/08 02:48:52;;;;;;;26.13;20.13;;;;;;;2.82;100.00;99499.50;5079438;28;20551;-60
2022/12/08 02:51:20;;;;;;;25.00;19.77;;;;;;;2.79;100.00;99495.25;5084256;28;20491;-60
2022/12/08 02:53:47;;;;;;;25.67;19.37;;;;;;;2.89;100.00;99494.63;5102845;28;20443;-60
2022/12/08 02:56:33;;;;;;;24.40;20.17;;;;;;;2.78;100.00;99487.47;5091493;28;20546;-60
2022/12/08 02:59:11;;;;;;;30.00;20.37;;;;;;;2.64;100.00;99489.28;5082633;28;20964;-60
2022/12/08 03:01:52;;;;;;;30.57;21.00;;;;;;;2.89;100.00;99492.81;5092338;28;20514;-60
2022/12/08 03:04:24;;;;;;;24.50;19.47;;;;;;;2.82;100.00;99478.38;5094042;28;20440;-59
2022/12/08 03:06:59;;;;;;;24.87;18.67;;;;;;;2.87;100.00;99480.69;5068479;28;20500;-60
2022/12/08 03:09:32;;;;;;;24.37;19.20;;;;;;;2.73;100.00;99468.50;5083769;28;20543;-60
2022/12/08 03:12:04;;;;;;;25.10;19.40;;;;;;;2.72;100.00;99466.78;5086601;28;20507;-60
2022/12/08 03:14:31;;;;;;;26.70;19.07;;;;;;;2.76;100.00;99463.81;5093013;28;20885;-60
2022/12/08 03:16:58;;;;;;;24.37;18.77;;;;;;;2.73;100.00;99463.22;5065779;28;20505;-60
2022/12/08 03:19:27;;;;;;;22.70;17.70;;;;;;;2.70;100.00;99456.34;5089637;28;20484;-60
2022/12/08 03:22:01;;;;;;;22.40;17.07;;;;;;;2.70;100.00;99445.78;5091619;28;20531;-60
2022/12/08 03:24:28;;;;;;;26.93;18.80;;;;;;;2.71;100.00;99450.13;5100652;28;20786;-60
2022/12/08 03:26:58;;;;;;;26.13;19.17;;;;;;;2.77;100.00;99448.81;5080750;28;20496;-60
2022/12/08 03:29:25;;;;;;;25.80;18.80;;;;;;;2.76;100.00;99445.34;5096474;28;20518;-60
2022/12/08 03:31:54;;;;;;;23.60;17.50;;;;;;;2.81;100.00;99442.34;5083202;28;20511;-60
2022/12/08 03:34:22;;;;;;;29.30;19.63;;;;;;;2.82;100.00;99441.41;5090241;28;20436;-60
2022/12/08 03:36:49;;;;;;;22.83;19.30;;;;;;;2.84;100.00;99439.50;5091427;28;20504;-60
2022/12/08 03:39:16;;;;;;;30.30;20.37;;;;;;;2.88;100.00;99432.19;5081476;28;20520;-60
2022/12/08 03:41:43;;;;;;;25.43;18.30;;;;;;;2.86;100.00;99427.03;5093340;28;20570;-60
2022/12/08 03:44:10;;;;;;;28.77;19.20;;;;;;;2.90;100.00;99425.88;5091901;28;20469;-60
2022/12/08 03:46:36;;;;;;;24.70;19.30;;;;;;;2.72;100.00;99425.41;5081893;28;20484;-60
2022/12/08 03:49:03;;;;;;;26.77;19.53;;;;;;;2.80;100.00;99414.28;5080831;28;20520;-60
2022/12/08 03:51:30;;;;;;;26.07;20.97;;;;;;;2.80;100.00;99416.94;5060957;28;20489;-60
2022/12/08 03:53:56;;;;;;;32.57;21.47;;;;;;;2.74;100.00;99412.94;5087182;28;20455;-60
2022/12/08 03:56:26;;;;;;;29.23;20.80;;;;;;;2.74;100.00;99412.09;5092872;28;20504;-60
2022/12/08 03:58:54;;;;;;;26.40;19.20;;;;;;;2.75;100.00;99409.34;5092670;28;20555;-60
2022/12/08 04:01:21;;;;;;;28.13;21.10;;;;;;;2.86;100.00;99408.56;5100554;28;20511;-60
2022/12/08 04:03:47;;;;;;;27.40;19.43;;;;;;;2.76;100.00;99396.97;5102061;28;20468;-60
2022/12/08 04:06:14;;;;;;;29.47;20.90;;;;;;;2.88;100.00;99398.72;5087240;28;20594;-60
2022/12/08 04:08:41;;;;;;;35.67;21.50;;;;;;;2.90;100.00;99396.84;5088787;28;20556;-60
2022/12/08 04:11:08;;;;;;;27.27;19.93;;;;;;;2.92;100.00;99409.94;5102203;28;21003;-60
2022/12/08 04:13:37;;;;;;;31.20;20.67;;;;;;;2.90;100.00;99399.47;5097871;28;20444;-60
2022/12/08 04:16:04;;;;;;;26.33;20.93;;;;;;;2.81;100.00;99392.22;5086923;28;20472;-60
2022/12/08 04:18:31;;;;;;;28.20;20.10;;;;;;;2.71;100.00;99391.19;5096319;28;21033;-60
2022/12/08 04:20:58;;;;;;;32.40;21.17;;;;;;;2.81;100.00;99390.44;5088753;28;20476;-60
2022/12/08 04:23:25;;;;;;;26.00;20.50;;;;;;;2.75;100.00;99385.59;5105336;28;20508;-60
2022/12/08 04:25:52;;;;;;;31.93;21.00;;;;;;;2.85;100.00;99390.19;5100745;28;20513;-60
2022/12/08 04:28:18;;;;;;;29.70;22.50;;;;;;;2.86;100.00;99384.78;5104455;28;20518;-60
2022/12/08 04:30:47;;;;;;;24.13;20.20;;;;;;;2.85;100.00;99387.53;5091655;28;20546;-60
2022/12/08 04:33:14;;;;;;;22.93;19.50;;;;;;;2.92;100.00;99383.53;5100512;28;20507;-61
2022/12/08 04:35:41;;;;;;;27.40;21.67;;;;;;;2.87;100.00;99377.75;5087309;28;20506;-60
2022/12/08 04:38:07;;;;;;;30.20;22.20;;;;;;;2.89;100.00;99375.81;5078113;28;20449;-60
2022/12/08 04:40:34;;;;;;;30.80;22.27;;;;;;;2.94;100.00;99366.59;5095849;28;20490;-60
2022/12/08 04:43:00;;;;;;;30.10;23.07;;;;;;;2.92;100.00;99367.69;5100872;28;20871;-60
2022/12/08 04:45:27;;;;;;;33.10;23.00;;;;;;;2.95;100.00;99370.06;5106689;28;20478;-60
2022/12/08 04:47:55;;;;;;;30.80;22.80;;;;;;;2.97;100.00;99371.66;5091136;28;20491;-60
2022/12/08 04:50:22;;;;;;;36.60;22.50;;;;;;;2.97;100.00;99371.66;5095258;28;20470;-60
2022/12/08 04:52:48;;;;;;;30.70;21.53;;;;;;;3.13;100.00;99362.59;5094695;28;20484;-60
2022/12/08 04:55:15;;;;;;;35.23;25.40;;;;;;;3.04;100.00;99368.53;5102832;28;20538;-60
2022/12/08 04:57:42;;;;;;;29.67;22.30;;;;;;;3.07;100.00;99365.69;5101377;28;20451;-59
2022/12/08 05:00:09;;;;;;;32.67;22.60;;;;;;;3.05;100.00;99357.03;5100266;28;20475;-60
2022/12/08 05:02:36;;;;;;;33.40;23.70;;;;;;;2.98;100.00;99362.75;5091769;28;20478;-60
2022/12/08 05:05:04;;;;;;;34.80;23.53;;;;;;;2.96;100.00;99358.56;5086629;28;20436;-60
2022/12/08 05:07:31;;;;;;;30.97;22.40;;;;;;;3.11;100.00;99357.44;5094114;28;20558;-60
2022/12/08 05:09:58;;;;;;;30.57;23.30;;;;;;;2.99;100.00;99360.97;5091010;28;20499;-60
2022/12/08 05:12:25;;;;;;;32.50;24.07;;;;;;;3.05;100.00;99364.97;5092881;28;20566;-60
2022/12/08 05:14:51;;;;;;;30.70;23.10;;;;;;;3.03;100.00;99356.31;5084530;28;20452;-60
2022/12/08 05:17:18;;;;;;;29.60;23.03;;;;;;;3.06;100.00;99361.38;5076079;28;20481;-60
2022/12/08 05:19:45;;;;;;;29.33;22.03;;;;;;;2.95;100.00;99351.59;5076616;28;20899;-60
2022/12/08 05:22:13;;;;;;;31.20;21.73;;;;;;;3.00;100.00;99363.50;5083456;28;20487;-60
2022/12/08 05:24:40;;;;;;;27.33;20.90;;;;;;;2.95;100.00;99351.59;5104006;28;20460;-60
2022/12/08 05:27:06;;;;;;;28.90;20.97;;;;;;;2.99;100.00;99351.25;5100663;28;20511;-60
2022/12/08 05:29:33;;;;;;;27.80;21.00;;;;;;;3.07;100.00;99347.19;5099520;28;20553;-60
2022/12/08 05:31:59;;;;;;;28.83;21.30;;;;;;;2.91;100.00;99347.50;5082841;28;20511;-60
2022/12/08 05:34:26;;;;;;;27.97;20.30;;;;;;;2.92;100.00;99346.56;5099892;28;20432;-60
2022/12/08 05:36:53;;;;;;;27.90;19.73;;;;;;;2.91;100.00;99345.69;5101183;28;20503;-60
2022/12/08 05:39:21;;;;;;;27.90;18.43;;;;;;;3.00;100.00;99339.75;5085112;28;20516;-66
2022/12/08 05:41:47;;;;;;;26.00;18.80;;;;;;;2.98;100.00;99331.06;5093073;28;20507;-71
2022/12/08 05:44:14;;;;;;;25.80;19.17;;;;;;;2.92;100.00;99326.28;5102642;28;20501;-71
2022/12/08 05:46:41;;;;;;;26.40;18.37;;;;;;;2.90;100.00;99336.09;5101603;28;20555;-72
2022/12/08 05:49:07;;;;;;;29.90;19.70;;;;;;;2.93;100.00;99330.56;5101954;28;20514;-72
2022/12/08 05:51:34;;;;;;;31.07;17.97;;;;;;;2.93;100.00;99337.66;5100233;28;20529;-71
2022/12/08 05:54:01;;;;;;;27.87;18.40;;;;;;;2.88;100.00;99332.72;5102510;28;20479;-71
2022/12/08 05:56:28;;;;;;;28.03;18.07;;;;;;;2.97;100.00;99328.56;5076178;28;20602;-71
2022/12/08 05:58:55;;;;;;;27.57;17.90;;;;;;;2.83;100.00;99330.44;5102194;28;20471;-71
2022/12/08 06:01:24;;;;;;;25.67;16.43;;;;;;;2.90;100.00;99325.56;5101565;28;20563;-71
2022/12/08 06:03:50;;;;;;;25.03;17.27;;;;;;;3.01;100.00;99327.38;5081858;28;20879;-71
2022/12/08 06:06:17;;;;;;;23.40;15.50;;;;;;;2.94;100.00;99329.63;5082342;28;20456;-71
2022/12/08 06:08:44;;;;;;;21.97;16.33;;;;;;;2.79;100.00;99326.31;5085701;28;20487;-71
2022/12/08 06:11:17;;;;;;;23.50;17.10;;;;;;;2.81;100.00;99318.28;5080566;28;20495;-71
2022/12/08 06:13:46;;;;;;;24.43;16.77;;;;;;;2.77;100.00;99322.97;5095109;28;20981;-71
2022/12/08 06:16:12;;;;;;;22.30;16.60;;;;;;;2.78;100.00;99326.47;5086307;28;20491;-70
2022/12/08 06:18:39;;;;;;;25.57;17.33;;;;;;;2.81;100.00;99318.28;5098506;28;20464;-71
2022/12/08 06:21:07;;;;;;;24.87;17.30;;;;;;;2.85;100.00;99325.06;5088029;28;21139;-70
2022/12/08 06:23:34;;;;;;;28.30;18.13;;;;;;;2.92;100.00;99328.06;5081258;28;20465;-71
2022/12/08 06:26:01;;;;;;;28.07;18.47;;;;;;;2.96;100.00;99317.16;5084995;28;20507;-71
2022/12/08 06:28:29;;;;;;;25.70;19.00;;;;;;;3.01;100.00;99314.19;5098988;28;20563;-71
2022/12/08 06:30:57;;;;;;;27.50;20.10;;;;;;;2.95;100.00;99311.97;5100977;28;20520;-71
2022/12/08 06:33:24;;;;;;;30.53;19.40;;;;;;;3.04;100.00;99313.09;5088866;28;20501;-71
2022/12/08 06:35:51;;;;;;;30.27;20.60;;;;;;;2.96;100.00;99318.97;5101555;28;20506;-70
2022/12/08 06:38:18;;;;;;;30.83;22.23;;;;;;;2.89;100.00;99315.94;5100831;28;20491;-70
2022/12/08 06:40:45;;;;;;;33.40;21.10;;;;;;;2.85;100.00;99314.50;5094195;28;20906;-70
2022/12/08 06:43:11;;;;;;;32.17;19.60;;;;;;;2.94;100.00;99313.78;5081764;28;21040;-70
2022/12/08 06:45:41;;;;;;;33.07;22.37;;;;;;;2.94;100.00;99313.78;5062632;28;20468;-70
2022/12/08 06:48:09;;;;;;;30.77;20.50;;;;;;;2.86;100.00;99310.03;5070916;28;20456;-71
2022/12/08 06:50:35;;;;;;;29.93;19.20;;;;;;;2.95;100.00;99319.91;5079995;28;20476;-71
2022/12/08 06:53:02;;;;;;;33.43;20.30;;;;;;;2.96;100.00;99311.88;5081922;28;20476;-70
2022/12/08 06:55:28;;;;;;;32.80;22.23;;;;;;;3.03;100.00;99314.06;5065962;28;20495;-71
2022/12/08 06:57:55;;;;;;;29.67;20.93;;;;;;;3.09;100.00;99314.44;5071687;28;20475;-71
2022/12/08 07:00:22;;;;;;;30.13;20.60;;;;;;;2.94;100.00;99312.97;5100361;28;20463;-70
2022/12/08 07:02:49;;;;;;;29.53;20.40;;;;;;;3.03;100.00;99319.34;5088550;28;20869;-71
2022/12/08 07:05:17;;;;;;;31.90;20.60;;;;;;;3.01;100.00;99316.81;5082663;28;20475;-71
2022/12/08 07:07:43;;;;;;;30.07;20.70;;;;;;;2.98;100.00;99319.69;5101433;28;20455;-71
2022/12/08 07:10:10;;;;;;;30.70;20.40;;;;;;;3.00;100.00;99326.53;5088692;28;21182;-71
2022/12/08 07:12:37;;;;;;;29.77;19.87;;;;;;;3.05;100.00;99322.72;5072117;28;20483;-70
2022/12/08 07:15:04;;;;;;;30.53;19.90;;;;;;;2.91;100.00;99329.84;5064692;28;20469;-69
2022/12/08 07:17:31;;;;;;;34.87;20.83;;;;;;;3.01;100.00;99327.38;5079518;28;20477;-70
2022/12/08 07:19:58;;;;;;;29.80;20.13;;;;;;;2.97;100.00;99332.06;5078322;28;20480;-71
2022/12/08 07:22:26;;;;;;;29.13;17.93;;;;;;;2.94;100.00;99332.28;5077460;28;20507;-71
2022/12/08 07:24:56;;;;;;;25.90;17.70;;;;;;;2.89;100.00;99338.84;5079415;28;20459;-70
2022/12/08 07:27:23;;;;;;;28.37;17.80;;;;;;;2.96;100.00;99335.63;5078036;28;20511;-70
2022/12/08 07:29:49;;;;;;;26.97;18.00;;;;;;;2.96;100.00;99325.06;5079968;28;20531;-70
2022/12/08 07:32:16;;;;;;;24.00;16.47;;;;;;;2.89;100.00;99337.06;5090259;28;20499;-70
2022/12/08 07:34:43;;;;;;;23.63;16.47;;;;;;;2.91;100.00;99336.94;5082081;28;20943;-70
2022/12/08 07:37:09;;;;;;;23.23;15.67;;;;;;;2.98;100.00;99333.72;5084186;28;20514;-70
2022/12/08 07:39:38;;;;;;;26.67;16.27;;;;;;;2.98;100.00;99339.00;5082549;28;20491;-69
2022/12/08 07:42:05;;;;;;;21.57;15.30;;;;;;;3.01;100.00;99330.03;5080556;28;20512;-69
2022/12/08 07:44:31;;;;;;;25.00;16.90;;;;;;;3.04;100.00;99331.56;5074288;28;20487;-71
2022/12/08 07:46:58;;;;;;;27.07;16.93;;;;;;;3.01;100.00;99328.22;5077844;28;20516;-71
2022/12/08 07:49:25;;;;;;;25.53;16.57;;;;;;;3.01;100.00;99327.38;5079744;28;20929;-70
2022/12/08 07:51:51;;;;;;;26.93;17.17;;;;;;;2.99;100.00;99326.66;5080314;28;20476;-71
2022/12/08 07:54:18;;;;;;;24.40;17.53;;;;;;;3.09;100.00;99332.06;5081862;28;20475;-70
2022/12/08 07:56:46;;;;;;;24.60;17.07;;;;;;;3.07;100.00;99332.19;5064433;28;20508;-71
2022/12/08 07:59:13;;;;;;;29.50;18.10;;;;;;;3.02;100.00;99342.25;5080377;28;20866;-71
2022/12/08 08:01:40;;;;;;;30.50;17.23;;;;;;;3.00;100.00;99338.88;5082393;28;20480;-72
2022/12/08 08:04:07;;;;;;;25.73;17.90;;;;;;;3.01;100.00;99335.31;5065437;28;20496;-72
2022/12/08 08:06:35;;;;;;;23.23;16.80;;;;;;;3.02;100.00;99334.31;5080191;28;20472;-71
2022/12/08 08:09:01;;;;;;;25.03;16.87;;;;;;;3.06;100.00;99334.97;5087142;28;21150;-70
2022/12/08 08:11:28;;;;;;;22.53;15.37;;;;;;;3.10;100.00;99331.97;5080008;28;20483;-70
2022/12/08 08:13:56;;;;;;;25.77;16.77;;;;;;;3.01;100.00;99325.56;5099474;28;20479;-70
2022/12/08 08:16:23;;;;;;;22.77;15.53;;;;;;;3.12;100.00;99330.03;5088846;28;21223;-69
2022/12/08 08:18:50;;;;;;;25.03;15.97;;;;;;;3.08;100.00;99325.97;5098117;28;20471;-70
2022/12/08 08:21:18;;;;;;;29.50;17.70;;;;;;;3.08;100.00;99336.53;5080022;28;20731;-71
2022/12/08 08:23:45;;;;;;;26.20;16.97;;;;;;;3.19;100.00;99338.34;5080025;28;20460;-71
2022/12/08 08:26:11;;;;;;;22.90;15.30;;;;;;;3.19;100.00;99330.41;5078817;28;20476;-70
2022/12/08 08:28:38;;;;;;;25.47;17.00;;;;;;;3.15;100.00;99337.75;5080051;28;20484;-71
2022/12/08 08:31:07;;;;;;;26.27;15.83;;;;;;;3.14;100.00;99341.34;5077328;28;20507;-70
2022/12/08 08:33:33;;;;;;;26.17;15.80;;;;;;;3.15;100.00;99342.19;5080350;28;20476;-70
2022/12/08 08:36:00;;;;;;;27.47;15.87;;;;;;;3.16;100.00;99343.84;5078606;28;20506;-72
2022/12/08 08:38:28;;;;;;;28.00;16.90;;;;;;;3.11;100.00;99346.88;5078104;28;20501;-70
2022/12/08 08:40:54;;;;;;;25.07;16.20;;;;;;;3.23;100.00;99347.75;5078429;28;20492;-70
2022/12/08 08:43:30;;;;;;;25.00;16.40;;;;;;;3.22;100.00;99347.84;5079729;28;20449;-71
2022/12/08 08:45:58;;;;;;;31.30;18.80;;;;;;;3.23;100.00;99345.09;5058365;28;20472;-71
2022/12/08 08:48:26;;;;;;;28.47;16.87;;;;;;;3.23;100.00;99346.88;5060556;28;20456;-71
2022/12/08 08:50:53;;;;;;;25.00;15.03;;;;;;;3.17;100.00;99341.09;5072673;28;20487;-70
2022/12/08 08:53:20;;;;;;;27.77;16.80;;;;;;;3.33;100.00;99346.09;5087951;28;20883;-70
2022/12/08 08:55:46;;;;;;;20.67;15.13;;;;;;;3.46;100.00;99339.88;5083905;28;20484;-71
2022/12/08 08:58:13;;;;;;;20.97;13.93;;;;;;;3.24;100.00;99344.13;5083832;28;20510;-71
2022/12/08 09:00:40;;;;;;;22.93;14.97;;;;;;;3.26;100.00;99344.00;5102426;28;20475;-70
2022/12/08 09:03:07;;;;;;;22.53;15.87;;;;;;;3.29;100.00;99349.06;5103749;28;20452;-71
2022/12/08 09:05:35;;;;;;;18.60;13.03;;;;;;;3.22;100.00;99340.75;5098368;28;20910;-71
2022/12/08 09:08:01;;;;;;;21.83;14.70;;;;;;;3.29;100.00;99355.19;5083300;28;20476;-70
2022/12/08 09:10:28;;;;;;;19.87;13.30;;;;;;;3.38;100.00;99346.53;5083850;28;20468;-70
2022/12/08 09:12:54;;;;;;;19.93;13.87;;;;;;;3.30;100.00;99341.03;5083792;28;20514;-71
2022/12/08 09:15:21;;;;;;;18.23;12.60;;;;;;;3.26;100.00;99349.28;5081576;28;20437;-70
2022/12/08 09:17:48;;;;;;;16.50;12.20;;;;;;;3.29;100.00;99339.34;5082843;28;20478;-70
2022/12/08 09:20:15;;;;;;;17.97;13.00;;;;;;;3.29;100.00;99351.72;5083684;28;20466;-71
2022/12/08 09:22:43;;;;;;;18.73;13.77;;;;;;;3.29;100.00;99352.53;5093818;28;20472;-71
2022/12/08 09:25:10;;;;;;;17.33;12.43;;;;;;;3.29;100.00;99363.09;5084378;28;20741;-72
2022/12/08 09:27:36;;;;;;;19.23;13.20;;;;;;;3.23;100.00;99362.72;5082157;28;20475;-72
2022/12/08 09:30:04;;;;;;;21.70;15.00;;;;;;;3.20;100.00;99369.09;5082437;28;20515;-72
2022/12/08 09:32:31;;;;;;;17.67;13.37;;;;;;;3.27;100.00;99362.38;5081060;28;20488;-72
2022/12/08 09:34:58;;;;;;;15.33;12.10;;;;;;;3.34;100.00;99368.88;5083306;28;20966;-72
2022/12/08 09:37:24;;;;;;;15.70;12.40;;;;;;;3.32;100.00;99373.44;5081815;28;20492;-70
2022/12/08 09:39:53;;;;;;;17.53;12.67;;;;;;;3.36;100.00;99366.13;5081481;28;20485;-72
2022/12/08 09:42:26;;;;;;;18.50;13.10;;;;;;;3.33;100.00;99367.22;5082044;28;20480;-72
2022/12/08 09:44:56;;;;;;;20.17;12.50;;;;;;;3.41;100.00;99357.88;5082987;28;20456;-72
2022/12/08 09:47:26;;;;;;;21.80;13.80;;;;;;;3.48;100.00;99356.44;5095515;28;20514;-71
2022/12/08 09:49:59;;;;;;;18.63;13.50;;;;;;;3.54;100.00;99361.22;5098700;28;20495;-70
2022/12/08 09:52:30;;;;;;;17.53;12.80;;;;;;;3.45;100.00;99364.59;5081683;28;20984;-73
2022/12/08 09:55:12;;;;;;;16.20;11.90;;;;;;;3.49;100.00;99364.25;5098335;28;20443;-71
2022/12/08 09:57:39;;;;;;;16.20;12.90;;;;;;;3.50;100.00;99362.44;5101177;28;20478;-72
2022/12/08 10:00:07;;;;;;;14.90;11.90;;;;;;;3.57;100.00;99358.38;5101067;28;20443;-72
2022/12/08 10:02:36;;;;;;;18.47;13.97;;;;;;;3.55;100.00;99362.94;5083100;28;20513;-72
2022/12/08 10:05:03;;;;;;;16.50;12.33;;;;;;;3.61;100.00;99361.59;5082944;28;20440;-72
2022/12/08 10:07:37;;;;;;;18.07;13.43;;;;;;;3.77;100.00;99359.47;5080712;28;20484;-72
2022/12/08 10:10:14;;;;;;;18.07;12.97;;;;;;;3.73;100.00;99365.94;5065801;28;20485;-71
2022/12/08 10:12:45;;;;;;;16.40;12.83;;;;;;;3.84;100.00;99362.50;5087345;28;20494;-72
2022/12/08 10:15:26;;;;;;;15.90;12.70;;;;;;;3.70;100.00;99358.28;5094858;28;20448;-72
2022/12/08 10:17:57;;;;;;;18.30;13.17;;;;;;;3.64;100.00;99359.56;5081905;28;20924;-72
2022/12/08 10:20:26;;;;;;;19.07;13.80;;;;;;;3.62;100.00;99356.22;5080689;28;20431;-69
2022/12/08 10:22:57;;;;;;;18.83;13.80;;;;;;;3.71;100.00;99357.31;5071370;28;20457;-72
2022/12/08 10:25:30;;;;;;;16.50;13.70;;;;;;;3.84;100.00;99352.75;5063040;28;20418;-72
2022/12/08 10:27:58;;;;;;;18.30;14.17;;;;;;;3.91;100.00;99348.66;5081480;28;20537;-70
2022/12/08 10:30:25;;;;;;;19.20;14.17;;;;;;;3.87;100.00;99347.22;5080138;28;20520;-71
2022/12/08 10:32:53;;;;;;;20.47;13.67;;;;;;;3.71;100.00;99344.09;5081273;28;20479;-72
2022/12/08 10:35:21;;;;;;;17.57;13.40;;;;;;;3.71;100.00;99344.91;5081426;28;20472;-73
2022/12/08 10:37:56;;;;;;;20.00;12.80;;;;;;;3.72;100.00;99341.31;5098906;28;20725;-73
2022/12/08 10:40:23;;;;;;;19.70;12.60;;;;;;;3.70;100.00;99337.13;5091365;28;20466;-72
2022/12/08 10:42:52;;;;;;;19.00;14.00;;;;;;;3.76;100.00;99337.47;5080518;28;20452;-71
2022/12/08 10:45:23;;;;;;;15.40;12.47;;;;;;;3.90;100.00;99336.38;5080624;28;20460;-72
2022/12/08 10:47:58;;;;;;;16.93;12.77;;;;;;;3.75;100.00;99341.09;5092164;28;20486;-71
2022/12/08 10:50:30;;;;;;;15.57;12.03;;;;;;;3.72;100.00;99343.97;5097578;28;21009;-72
2022/12/08 10:52:58;;;;;;;16.33;12.40;;;;;;;3.60;100.00;99342.28;5080667;28;20471;-72
2022/12/08 10:55:28;;;;;;;15.00;10.93;;;;;;;3.68;100.00;99337.25;5097788;28;20440;-71
2022/12/08 10:57:59;;;;;;;17.70;13.37;;;;;;;3.69;100.00;99336.25;5092577;28;20445;-73
2022/12/08 11:00:27;;;;;;;16.43;12.90;;;;;;;3.61;100.00;99333.41;5080119;28;20440;-71
2022/12/08 11:02:56;;;;;;;16.47;12.30;;;;;;;3.92;100.00;99330.97;5081023;28;20479;-72
2022/12/08 11:05:27;;;;;;;14.67;11.90;;;;;;;3.99;100.00;99331.34;5093438;28;20953;-71
2022/12/08 11:07:55;;;;;;;15.33;11.80;;;;;;;3.89;100.00;99332.09;5099864;28;20851;-72
2022/12/08 11:10:29;;;;;;;15.43;11.20;;;;;;;3.92;100.00;99333.63;5095047;28;20488;-72
2022/12/08 11:13:00;;;;;;;16.53;11.67;;;;;;;3.84;100.00;99344.00;5080114;28;20502;-73
2022/12/08 11:15:33;;;;;;;20.93;16.97;;;;;;;3.81;100.00;99342.41;5091212;28;20885;-73
2022/12/08 11:18:01;;;;;;;13.33;10.73;;;;;;;3.86;100.00;99339.41;5100081;28;20461;-72
2022/12/08 11:20:28;;;;;;;20.50;15.27;;;;;;;3.86;100.00;99337.59;5099647;28;20541;-72
2022/12/08 11:22:57;;;;;;;19.50;15.50;;;;;;;3.93;100.00;99330.03;5099516;28;20443;-73
2022/12/08 11:25:25;;;;;;;13.97;11.63;;;;;;;3.97;100.00;99328.81;5097564;28;21020;-72
2022/12/08 11:27:53;;;;;;;16.87;13.30;;;;;;;3.93;100.00;99332.69;5079398;28;20987;-72